GABS Airport Information

Runway Information
Runway 06 Length 8879 ft width 148 ft
Elevation 1187 ft Threshold 0 ft Heading 57
Runway 24 Length 8879 ft Width 148 ft
Elevation 1244 ft Threshold 0 ft Heading 237
Airport Frequencies
Type A/G Name A/G Frequency 667.3 MHZ
Type ACC Name ACC Frequency 119.1 MHZ
Type TWR Name TWR Frequency 118.3 MHZ
Airport Navaids
Type VOR-DME Name Bamako/Senou Frequency 113700 KHZ
Type NDB Name Bamako/Senou Frequency 301 KHZ
Airport Weather Information & NOTAM
ADDS - METARS form results

(1951 UTC 07 May 2021)
Data provider http://aviationweather.gov/metar/data/
 
METAR text: GABS 071930Z 12004KT 080V180 6000 TS SCT030 FEW040CB 34/17 Q1013 TEMPO 06020G40KT 2000 TSRA
Conditions at: GABS (BAMAKO/SENOU (MI, ML) observed 1930 UTC 07 May 2021
Temperature: 34.0°C (93°F)
Dewpoint: 17.0°C (63°F) [RH = 36%]
Pressure (altimeter): 29.91 inches Hg (1013.0 mb)
Winds: from the ESE (120 degrees) at 5 MPH (4 knots; 2.1 m/s)
Visibility: 4 miles ( 6 km)
Ceiling: at least 12,000 feet AGL
Clouds: scattered clouds at 3000 feet AGL
few clouds at 4000 feet AGL
Weather: TS  (thunderstorm)

METAR text: GABS 071900Z 10010KT 070V130 6000 TS SCT030 FEW040CB 34/17 Q1012 TEMPO 06020G40KT 2000 TSRA
Conditions at: GABS (BAMAKO/SENOU (MI, ML) observed 1900 UTC 07 May 2021
Temperature: 34.0°C (93°F)
Dewpoint: 17.0°C (63°F) [RH = 36%]
Pressure (altimeter): 29.88 inches Hg (1012.0 mb)
Winds: from the E (100 degrees) at 12 MPH (10 knots; 5.1 m/s)
Visibility: 4 miles ( 6 km)
Ceiling: at least 12,000 feet AGL
Clouds: scattered clouds at 3000 feet AGL
few clouds at 4000 feet AGL
Weather: TS  (thunderstorm)

Forecast for: GABS (BAMAKO/SENOU (MI, ML)
Text: TAF GABS 071700Z 0718/0824 25007G17KT 9999 FEW030
Forecast period: 1800 UTC 07 May 2021 to 0000 UTC 09 May 2021
Forecast type: FROM: standard forecast or significant change
Winds: from the WSW (250 degrees) at 8 MPH (7 knots; 3.6 m/s)
gusting to 20 MPH (17 knots; 8.7 m/s)
Visibility: 6 or more miles (10+ km)
Ceiling: at least 12,000 feet AGL
Clouds: few clouds at 3000 feet AGL
Weather: no significant weather forecast for this period
Text: PROB40
Forecast period: 1800 UTC 07 May 2021 to 0000 UTC 08 May 2021
Forecast type: TEMPORARY: The following changes expected for less than half the time period
Winds: variable direction winds at 17 MPH (15 knots; 7.7 m/s)
gusting to 40 MPH (35 knots; 18.0 m/s)
Visibility: 1.24 miles (2.00 km)
Ceiling: at least 12,000 feet AGL
Clouds: scattered clouds at 3000 feet AGL
few clouds at 3300 feet AGL
Weather: -TSRA BLDU  (light rain associated with thunderstorm(s), blowing dust)